Nearby METAR Reports

 

KUCP - New Castle Muni, Pennsylvania, USA
Distance from station: ENE 8mi, 13km
Updated: Sun, 20-Sep-2020 7:56pm EDT
Clear
Clear
 Wind from E
Wind: E 3 mph , 6 km/h
Temperature: 52°F , 11°C
Dew Point: 39°F , 4°C
Humidity: 62%
Barometer: 30.48 inHg , 1032.2 hPa
Clouds: Clear
Visibility: 10 miles , 16 km
2020/09/20 23:56 KUCP 202356Z AUTO 08003KT 10SM CLR 11/04 A3048 RMK AO2 SLP343 T01060039 10194 20106 53006
KBVI - Beaver Falls Arp, Pennsylvania, USA
Distance from station: SSE 16mi, 26km
Updated: Sun, 20-Sep-2020 8:35pm EDT
Clear
Clear
 Wind from calm
Wind: Calm
Temperature: 59°F , 15°C
Dew Point: 36°F , 2°C
Humidity: 42%
Barometer: 30.47 inHg , 1031.8 hPa
Clouds: Clear
Visibility: 10 miles , 16 km
2020/09/21 00:35 KBVI 210035Z AUTO 00000KT 10SM CLR 15/02 A3047 RMK AO2 T01470020
 
KYNG - Youngstown, Ohio, USA
Distance from station: NNW 20mi, 33km
Updated: Sun, 20-Sep-2020 7:51pm EDT
Clear
Clear
 Wind from calm
Wind: Calm
Temperature: 50°F , 10°C
Dew Point: 41°F , 5°C
Humidity: 71%
Barometer: 30.48 inHg , 1032.2 hPa
Clouds: Clear
Visibility: 10 miles , 16 km
2020/09/20 23:51 KYNG 202351Z 00000KT 10SM CLR 10/05 A3048 RMK AO2 SLP327 T01000050 10189 20100 50001 $
KBTP - Butler Co., Pennsylvania, USA
Distance from station: ESE 34mi, 55km
Updated: Sun, 20-Sep-2020 7:56pm EDT
Clear
Clear
 Wind from calm
Wind: Calm
Temperature: 52°F , 11°C
Dew Point: 39°F , 4°C
Humidity: 62%
Barometer: 30.48 inHg , 1032.2 hPa
Clouds: Clear
Visibility: 10 miles , 16 km
2020/09/20 23:56 KBTP 202356Z AUTO 00000KT 10SM CLR 11/04 A3048 RMK AO2 SLP334 6//// T01060039 10178 20106 53007 PNO $
 
KPIT - Pittsburgh, Pennsylvania, USA
Distance from station: SSE 36mi, 57km
Updated: Sun, 20-Sep-2020 7:51pm EDT
Clear
Clear
 Wind from NE
Wind: NE 7 mph , 11 km/h
Temperature: 61°F , 16°C
Dew Point: 34°F , 1°C
Humidity: 36%
Barometer: 30.45 inHg , 1031.2 hPa
Clouds: Clear
Visibility: 10 miles , 16 km
2020/09/20 23:51 KPIT 202351Z 04006KT 10SM CLR 16/01 A3045 RMK AO2 SLP322 T01560006 10200 20156 53006
KPOV - Ravena/Portage, Ohio, USA
Distance from station: WNW 40mi, 65km
Updated: Sun, 20-Sep-2020 8:35pm EDT
Clear
Clear
 Wind from calm
Wind: Calm
Temperature: 48°F , 9°C
Dew Point: 39°F , 4°C
Humidity: 71%
Barometer: 30.48 inHg , 1032.2 hPa
Clouds: Clear
Visibility: 10 miles , 16 km
2020/09/21 00:35 KPOV 210035Z AUTO 00000KT 10SM CLR 09/04 A3048 RMK AO2 T00880039 PWINO
 
KFKL - Franklin, Pennsylvania, USA
Distance from station: NE 45mi, 72km
Updated: Sun, 20-Sep-2020 7:56pm EDT
Clear
Clear
 Wind from calm
Wind: Calm
Temperature: 55°F , 13°C
Dew Point: 34°F , 1°C
Humidity: 44%
Barometer: 30.49 inHg , 1032.5 hPa
Clouds: Clear
Visibility: 10 miles , 16 km
2020/09/20 23:56 KFKL 202356Z AUTO 00000KT 10SM CLR 13/01 A3049 RMK AO2 SLP335 T01330006 10178 20133 53008
KCAK - Akron, Ohio, USA
Distance from station: W 47mi, 76km
Updated: Sun, 20-Sep-2020 7:51pm EDT
Clear
Clear
 Wind from ENE
Wind: ENE 7 mph , 11 km/h
Temperature: 57°F , 14°C
Dew Point: 39°F , 4°C
Humidity: 51%
Barometer: 30.46 inHg , 1031.5 hPa
Clouds: Clear
Visibility: 10 miles , 16 km
2020/09/20 23:51 KCAK 202351Z 06006KT 10SM CLR 14/04 A3046 RMK AO2 SLP319 T01390039 10194 20139 51002
 
KAKR - Akron (fulton), Ohio, USA
Distance from station: W 48mi, 77km
Updated: Sun, 20-Sep-2020 7:54pm EDT
Clear
Clear
 Wind from ENE
Wind: ENE 5 mph , 7 km/h
Temperature: 61°F , 16°C
Dew Point: 37°F , 3°C
Humidity: 42%
Barometer: 30.46 inHg , 1031.5 hPa
Clouds: Clear
Visibility: 10 miles , 16 km
2020/09/20 23:54 KAKR 202354Z AUTO 07004KT 10SM CLR 16/03 A3046 RMK AO2 SLP315 T01560028 10206 20156 53002 $
KGKJ - Meadville, Pennsylvania, USA
Distance from station: NNE 49mi, 79km
Updated: Sun, 20-Sep-2020 7:53pm EDT
Clear
Clear
 Wind from calm
Wind: Calm
Temperature: 55°F , 13°C
Dew Point: 34°F , 1°C
Humidity: 44%
Barometer: 30.48 inHg , 1032.2 hPa
Clouds: Clear
Visibility: 10 miles , 16 km
2020/09/20 23:53 KGKJ 202353Z AUTO 00000KT 10SM CLR 13/01 A3048 RMK AO2 SLP327 T01330006 10183 20128 53006